KDWX

Dixon Airport

Dixon, Wyoming, USA
METAR KDWX 210335Z AUTO 31023G30KT 10SM OVC110 20/01 A3024 RMK AO2 LTG DSNT N T02030012
Observed Flight Rules
Aug-21 @ 03:35 UTC (35 minutes ago) Visual Flight Rules
Wind Visibility Clouds
310° at 23 knots
 Gusting to 30 knots
10 miles
  • Overcast at 11,000' AGL
Temperatures Readings
Current 20°C / 68°F
Dewpoint 1°C / 34°F
Humidity 28%
Altimeter 30.24" Hg
Pressure 1024 hPa
Elevation 1996
METAR KDWX 210335Z AUTO 31023G30KT 10SM OVC110 20/01 A3024 RMK AO2 LTG DSNT N T02030012
Observed Flight Rules
Aug-21 @ 03:35 UTC
(35 minutes ago)
VFR
Wind Visibility
310° at 23 knots
 Gusting to 30 knots
10 miles
Clouds
  • Overcast at 11,000' AGL
Temperature Dewpoint
20°C / 68°F 1°C / 34°F
Humidity Altimeter Pressure
28% 30.24" Hg 1024 hPa